createdAt,value
2023-05-23T00:00:21.160Z,79.20
2023-05-23T00:02:47.698Z,79.20
2023-05-23T00:05:14.219Z,79.50
2023-05-23T00:07:40.691Z,79.60
2023-05-23T00:10:07.138Z,79.70
2023-05-23T00:12:33.566Z,79.80
2023-05-23T00:15:00.016Z,79.80
2023-05-23T00:17:26.885Z,79.70
2023-05-23T00:19:53.472Z,79.70
2023-05-23T00:22:19.921Z,80.00
2023-05-23T00:24:46.372Z,80.00
2023-05-23T00:27:12.847Z,80.20
2023-05-23T00:29:39.277Z,80.20
2023-05-23T00:32:05.770Z,80.40
2023-05-23T00:34:32.291Z,80.60
2023-05-23T00:36:58.741Z,80.80
2023-05-23T00:39:25.231Z,81.00
2023-05-23T00:41:52.963Z,81.30
2023-05-23T00:44:19.888Z,81.40
2023-05-23T00:46:46.376Z,81.50
2023-05-23T00:49:12.991Z,81.50
2023-05-23T00:51:39.474Z,81.60
2023-05-23T00:54:05.962Z,81.60
2023-05-23T00:56:32.412Z,81.70
2023-05-23T00:58:58.849Z,81.90
2023-05-23T01:01:25.296Z,81.90
2023-05-23T01:03:51.861Z,82.20
2023-05-23T01:06:18.534Z,82.40
2023-05-23T01:08:44.950Z,82.60
2023-05-23T01:11:11.387Z,82.70
2023-05-23T01:13:37.856Z,82.90
2023-05-23T01:16:04.379Z,82.90
2023-05-23T01:18:30.896Z,83.00
2023-05-23T01:20:57.457Z,83.10
2023-05-23T01:23:23.924Z,83.10
2023-05-23T01:25:50.369Z,83.20
2023-05-23T01:28:16.868Z,83.30
2023-05-23T01:30:43.387Z,83.50
2023-05-23T01:33:09.914Z,83.60
2023-05-23T01:35:36.413Z,83.70
2023-05-23T01:38:02.914Z,83.80
2023-05-23T01:40:29.380Z,84.00
2023-05-23T01:42:55.982Z,84.10
2023-05-23T01:45:22.478Z,84.30
2023-05-23T01:47:48.965Z,84.50
2023-05-23T01:50:16.478Z,84.80
2023-05-23T01:52:42.913Z,85.10
2023-05-23T01:55:09.367Z,85.20
2023-05-23T01:57:35.953Z,85.40
2023-05-23T02:00:02.413Z,85.60
2023-05-23T02:02:29.018Z,85.80
2023-05-23T02:04:55.852Z,86.00
2023-05-23T02:07:22.327Z,86.40
2023-05-23T02:09:49.008Z,86.60
2023-05-23T02:12:15.558Z,86.90
2023-05-23T02:14:42.021Z,87.20
2023-05-23T02:17:08.563Z,87.20
2023-05-23T02:19:35.194Z,87.30
2023-05-23T02:22:01.685Z,87.40
2023-05-23T02:24:28.184Z,87.60
2023-05-23T02:26:54.665Z,87.80
2023-05-23T02:29:21.114Z,87.90
2023-05-23T02:31:47.650Z,88.10
2023-05-23T02:34:14.143Z,88.10
2023-05-23T02:36:40.636Z,88.20
2023-05-23T02:39:07.129Z,88.30
2023-05-23T02:41:33.600Z,88.30
2023-05-23T02:44:00.053Z,88.40
2023-05-23T02:46:26.712Z,88.50
2023-05-23T02:48:53.388Z,88.50
2023-05-23T02:51:19.985Z,88.50
2023-05-23T02:53:46.476Z,88.40
2023-05-23T02:56:12.929Z,88.30
2023-05-23T02:58:39.404Z,88.30
2023-05-23T03:01:07.873Z,88.30
2023-05-23T03:03:34.760Z,88.40
2023-05-23T03:06:01.274Z,88.40
2023-05-23T03:08:27.744Z,88.40
2023-05-23T03:10:54.180Z,88.40
2023-05-23T03:13:20.587Z,88.40
2023-05-23T03:15:46.998Z,88.40
2023-05-23T03:18:13.489Z,88.50
2023-05-23T03:20:39.913Z,88.60
2023-05-23T03:23:06.417Z,88.60
2023-05-23T03:25:32.913Z,88.50
2023-05-23T03:27:59.388Z,88.40
2023-05-23T03:30:25.977Z,88.30
2023-05-23T03:32:52.676Z,88.20
2023-05-23T03:35:19.218Z,88.20
2023-05-23T03:37:45.708Z,88.20
2023-05-23T03:40:12.209Z,88.10
2023-05-23T03:42:38.642Z,88.10
2023-05-23T03:45:05.061Z,88.10
2023-05-23T03:47:31.493Z,88.20
2023-05-23T03:49:57.948Z,88.20
2023-05-23T03:52:24.429Z,88.10
2023-05-23T03:54:50.875Z,88.10
2023-05-23T03:57:17.283Z,88.10
2023-05-23T03:59:43.693Z,88.00
2023-05-23T04:02:10.129Z,87.90
2023-05-23T04:04:36.723Z,87.60
2023-05-23T04:07:03.291Z,87.30
2023-05-23T04:09:29.812Z,87.40
2023-05-23T04:11:56.249Z,87.30
2023-05-23T04:14:22.757Z,87.30
2023-05-23T04:16:49.252Z,87.20
2023-05-23T04:19:16.156Z,87.20
2023-05-23T04:21:42.691Z,87.70
2023-05-23T04:24:09.110Z,87.00
2023-05-23T04:26:35.546Z,86.90
2023-05-23T04:29:01.974Z,86.70
2023-05-23T04:31:28.512Z,86.60
2023-05-23T04:33:55.107Z,86.50
2023-05-23T04:36:21.542Z,86.20
2023-05-23T04:38:47.995Z,86.10
2023-05-23T04:41:14.508Z,86.00
2023-05-23T04:43:40.953Z,85.90
2023-05-23T04:46:07.455Z,85.70
2023-05-23T04:48:33.930Z,85.60
2023-05-23T04:51:00.357Z,85.50
2023-05-23T04:53:27.061Z,85.50
2023-05-23T04:55:53.692Z,85.50
2023-05-23T04:58:20.164Z,85.60
2023-05-23T05:00:46.629Z,85.50
2023-05-23T05:03:13.082Z,85.40
2023-05-23T05:05:39.572Z,85.30
2023-05-23T05:08:06.018Z,85.40
2023-05-23T05:10:32.472Z,85.50
2023-05-23T05:12:58.904Z,85.50
2023-05-23T05:15:25.341Z,85.50
2023-05-23T05:17:51.868Z,85.50
2023-05-23T05:20:18.451Z,85.60
2023-05-23T05:22:45.118Z,85.50
2023-05-23T05:25:11.589Z,85.60
2023-05-23T05:27:38.098Z,85.40
2023-05-23T05:30:04.757Z,85.40
2023-05-23T05:32:31.220Z,85.40
2023-05-23T05:34:57.725Z,85.60
2023-05-23T05:37:24.196Z,85.70
2023-05-23T05:39:50.634Z,85.90
2023-05-23T05:42:17.105Z,85.90
2023-05-23T05:44:43.540Z,85.90
2023-05-23T05:47:09.956Z,86.10
2023-05-23T05:49:36.439Z,86.20
2023-05-23T05:52:02.929Z,86.10
2023-05-23T05:54:29.392Z,85.70
2023-05-23T05:56:56.010Z,85.80
2023-05-23T05:59:22.438Z,85.60
2023-05-23T06:01:49.044Z,85.40
2023-05-23T06:04:15.649Z,85.10
2023-05-23T06:06:42.175Z,85.10
2023-05-23T06:09:08.605Z,85.10
2023-05-23T06:11:35.342Z,85.00
2023-05-23T06:14:01.800Z,85.00
2023-05-23T06:16:28.503Z,84.90
2023-05-23T06:18:55.071Z,85.00
2023-05-23T06:21:21.517Z,84.90
2023-05-23T06:23:47.935Z,85.00
2023-05-23T06:26:14.460Z,85.00
2023-05-23T06:28:40.908Z,84.90
2023-05-23T06:31:07.375Z,84.60
2023-05-23T06:33:33.788Z,84.40
2023-05-23T06:36:00.276Z,84.30
2023-05-23T06:38:27.009Z,84.30
2023-05-23T06:40:53.492Z,83.90
2023-05-23T06:43:20.101Z,83.90
2023-05-23T06:45:46.572Z,83.90
2023-05-23T06:48:13.064Z,83.90
2023-05-23T06:50:39.833Z,83.60
2023-05-23T06:53:06.485Z,83.60
2023-05-23T06:55:32.978Z,83.70
2023-05-23T06:57:59.457Z,83.60
2023-05-23T07:00:26.138Z,83.50
2023-05-23T07:02:52.714Z,83.10
2023-05-23T07:05:19.278Z,82.90
2023-05-23T07:07:45.739Z,82.80
2023-05-23T07:10:12.283Z,82.60
2023-05-23T07:12:38.781Z,82.70
2023-05-23T07:15:05.239Z,82.80
2023-05-23T07:17:31.759Z,83.00
2023-05-23T07:19:58.249Z,82.80
2023-05-23T07:22:24.880Z,82.70
2023-05-23T07:24:51.374Z,82.80
2023-05-23T07:27:17.822Z,82.60
2023-05-23T07:29:44.279Z,83.00
2023-05-23T07:32:10.753Z,82.00
2023-05-23T07:34:37.248Z,81.70
2023-05-23T07:37:03.799Z,81.30
2023-05-23T07:39:30.313Z,81.00
2023-05-23T07:41:57.104Z,81.00
2023-05-23T07:44:25.209Z,80.70
2023-05-23T07:46:52.020Z,80.70
2023-05-23T07:49:19.049Z,79.90
2023-05-23T07:51:45.528Z,79.50
2023-05-23T07:54:13.059Z,79.30
2023-05-23T07:56:41.034Z,77.60
2023-05-23T07:59:07.567Z,77.10
2023-05-23T08:01:34.019Z,77.00
2023-05-23T08:04:00.633Z,77.00
2023-05-23T08:06:27.167Z,76.70
2023-05-23T08:08:53.660Z,76.80
2023-05-23T08:11:20.165Z,76.80
2023-05-23T08:13:46.715Z,76.10
2023-05-23T08:16:13.239Z,76.00
2023-05-23T08:18:39.867Z,76.00
2023-05-23T08:21:06.289Z,76.50
2023-05-23T08:23:32.765Z,76.50
2023-05-23T08:25:59.267Z,76.70
2023-05-23T08:28:26.077Z,76.70
2023-05-23T08:30:52.580Z,76.80
2023-05-23T08:33:19.168Z,77.00
2023-05-23T08:35:45.586Z,76.90
2023-05-23T08:38:12.018Z,77.30
2023-05-23T08:40:38.505Z,77.50
2023-05-23T08:43:05.026Z,77.20
2023-05-23T08:45:31.541Z,76.20
2023-05-23T08:47:58.111Z,75.30
2023-05-23T08:50:24.622Z,74.70
2023-05-23T08:52:51.083Z,73.40
2023-05-23T08:55:17.520Z,72.00
2023-05-23T08:57:43.989Z,71.00
2023-05-23T09:00:10.487Z,70.10
2023-05-23T09:02:37.250Z,69.90
2023-05-23T09:05:03.761Z,68.60
2023-05-23T09:07:30.279Z,68.60
2023-05-23T09:09:56.856Z,68.60
2023-05-23T09:12:23.352Z,69.50
2023-05-23T09:14:50.002Z,69.20
2023-05-23T09:17:16.521Z,69.30
2023-05-23T09:19:42.997Z,69.10
2023-05-23T09:22:09.476Z,68.70
2023-05-23T09:24:35.942Z,68.40
2023-05-23T09:27:02.387Z,66.90
2023-05-23T09:29:28.875Z,66.00
2023-05-23T09:31:55.388Z,65.00
2023-05-23T09:34:21.883Z,65.00
2023-05-23T09:36:48.369Z,64.60
2023-05-23T09:39:14.855Z,65.40
2023-05-23T09:41:41.350Z,64.90
2023-05-23T09:44:07.847Z,64.70
2023-05-23T09:46:34.437Z,65.20
2023-05-23T09:49:01.018Z,64.80
2023-05-23T09:51:27.471Z,64.50
2023-05-23T09:53:53.976Z,63.50
2023-05-23T09:56:20.480Z,62.60
2023-05-23T09:58:46.952Z,61.80
2023-05-23T10:01:13.571Z,60.70
2023-05-23T10:03:40.017Z,59.90
2023-05-23T10:06:06.488Z,58.30
2023-05-23T10:08:32.980Z,58.10
2023-05-23T10:10:59.439Z,58.10
2023-05-23T10:13:26.140Z,59.00
2023-05-23T10:15:52.581Z,58.50
2023-05-23T10:18:19.246Z,58.80
2023-05-23T10:20:45.754Z,59.40
2023-05-23T10:23:12.214Z,59.30
2023-05-23T10:25:38.678Z,58.90
2023-05-23T10:28:05.222Z,59.00
2023-05-23T10:30:31.743Z,58.60
2023-05-23T10:32:58.312Z,58.30
2023-05-23T10:35:24.822Z,58.30
2023-05-23T10:37:51.246Z,57.30
2023-05-23T10:40:17.719Z,55.00
2023-05-23T10:42:44.238Z,54.70
2023-05-23T10:45:10.778Z,55.10
2023-05-23T10:47:37.258Z,54.90
2023-05-23T10:50:03.743Z,54.30
2023-05-23T10:52:30.191Z,54.70
2023-05-23T10:54:56.901Z,53.20
2023-05-23T10:57:23.376Z,51.20
2023-05-23T10:59:50.245Z,51.70
2023-05-23T11:02:16.751Z,52.70
2023-05-23T11:04:43.330Z,52.80
2023-05-23T11:07:09.870Z,52.20
2023-05-23T11:09:36.316Z,51.40
2023-05-23T11:12:02.867Z,52.10
2023-05-23T11:14:29.364Z,51.00
2023-05-23T11:16:56.192Z,50.80
2023-05-23T11:19:22.726Z,51.60
2023-05-23T11:21:49.331Z,52.00
2023-05-23T11:24:15.773Z,51.70
2023-05-23T11:26:42.246Z,52.40
2023-05-23T11:29:08.713Z,52.10
2023-05-23T11:31:35.218Z,49.80
2023-05-23T11:34:01.707Z,49.80
2023-05-23T11:36:28.154Z,48.10
2023-05-23T11:38:54.593Z,48.90
2023-05-23T11:41:21.067Z,49.30
2023-05-23T11:43:47.522Z,48.90
2023-05-23T11:46:14.023Z,50.30
2023-05-23T11:48:40.497Z,49.70
2023-05-23T11:51:06.948Z,48.80
2023-05-23T11:53:33.385Z,47.80
2023-05-23T11:55:59.872Z,48.10
2023-05-23T11:58:26.433Z,48.90
2023-05-23T12:00:55.204Z,49.30
2023-05-23T12:03:22.146Z,49.10
2023-05-23T12:05:49.245Z,49.20
2023-05-23T12:08:15.792Z,49.50
2023-05-23T12:10:42.684Z,49.30
2023-05-23T12:13:09.366Z,48.90
2023-05-23T12:15:36.270Z,48.20
2023-05-23T12:18:03.272Z,47.20
2023-05-23T12:20:29.886Z,47.30
2023-05-23T12:22:56.338Z,46.90
2023-05-23T12:25:22.802Z,47.50
2023-05-23T12:27:49.374Z,47.90
2023-05-23T12:30:15.804Z,48.80
2023-05-23T12:32:42.357Z,49.30
2023-05-23T12:35:08.879Z,48.40
2023-05-23T12:37:35.494Z,48.50
2023-05-23T12:40:02.081Z,48.40
2023-05-23T12:42:30.647Z,48.50
2023-05-23T12:44:57.418Z,48.80
2023-05-23T12:47:24.110Z,49.10
2023-05-23T12:49:50.661Z,48.90
2023-05-23T12:52:17.121Z,49.40
2023-05-23T12:54:43.596Z,49.40
2023-05-23T12:57:10.098Z,48.70
2023-05-23T12:59:36.565Z,49.10
2023-05-23T13:02:03.002Z,48.90
2023-05-23T13:04:32.014Z,48.30
2023-05-23T13:06:58.984Z,48.20
2023-05-23T13:09:25.561Z,47.90
2023-05-23T13:11:52.183Z,46.60
2023-05-23T13:14:18.802Z,46.60
2023-05-23T13:16:45.722Z,47.10
2023-05-23T13:19:12.270Z,47.90
2023-05-23T13:21:38.714Z,48.20
2023-05-23T13:24:05.155Z,49.90
2023-05-23T13:26:31.599Z,49.50
2023-05-23T13:28:58.050Z,49.80
2023-05-23T13:31:24.528Z,49.70
2023-05-23T13:33:51.027Z,48.30
2023-05-23T13:36:17.518Z,47.60
2023-05-23T13:38:44.210Z,47.50
2023-05-23T13:41:10.732Z,47.10
2023-05-23T13:43:37.209Z,47.50
2023-05-23T13:46:03.736Z,47.80
2023-05-23T13:48:30.202Z,47.50
2023-05-23T13:50:56.803Z,48.40
2023-05-23T13:53:23.295Z,48.30
2023-05-23T13:55:49.786Z,47.50
2023-05-23T13:58:16.254Z,46.20
2023-05-23T14:00:42.971Z,46.60
2023-05-23T14:03:09.900Z,47.90
2023-05-23T14:05:36.439Z,48.60
2023-05-23T14:08:04.576Z,48.90
2023-05-23T14:10:31.132Z,49.30
2023-05-23T14:12:57.678Z,49.20
2023-05-23T14:15:24.137Z,48.90
2023-05-23T14:17:50.587Z,48.00
2023-05-23T14:20:17.066Z,48.80
2023-05-23T14:22:43.528Z,48.20
2023-05-23T14:25:09.959Z,48.40
2023-05-23T14:27:36.395Z,48.10
2023-05-23T14:30:02.952Z,48.80
2023-05-23T14:32:29.449Z,49.20
2023-05-23T14:34:55.994Z,50.00
2023-05-23T14:37:22.477Z,50.30
2023-05-23T14:39:49.104Z,49.80
2023-05-23T14:42:15.724Z,49.50
2023-05-23T14:44:42.180Z,49.40
2023-05-23T14:47:08.622Z,50.00
2023-05-23T14:49:35.092Z,50.20
2023-05-23T14:52:01.567Z,50.10
2023-05-23T14:54:28.025Z,49.60
2023-05-23T14:56:54.460Z,49.60
2023-05-23T14:59:20.921Z,49.10
2023-05-23T15:01:47.518Z,48.30
2023-05-23T15:04:14.113Z,47.50
2023-05-23T15:06:40.637Z,46.70
2023-05-23T15:09:07.129Z,46.70
2023-05-23T15:11:33.594Z,45.70
2023-05-23T15:14:00.071Z,44.60
2023-05-23T15:16:26.795Z,44.30
2023-05-23T15:18:53.544Z,44.90
2023-05-23T15:21:20.423Z,46.10
2023-05-23T15:23:46.916Z,46.70
2023-05-23T15:26:13.393Z,47.80
2023-05-23T15:28:39.828Z,48.20
2023-05-23T15:31:06.294Z,48.30
2023-05-23T15:33:32.796Z,47.70
2023-05-23T15:35:59.322Z,46.40
2023-05-23T15:38:25.893Z,45.80
2023-05-23T15:40:52.494Z,45.80
2023-05-23T15:43:19.166Z,46.00
2023-05-23T15:45:45.882Z,45.50
2023-05-23T15:48:12.513Z,45.10
2023-05-23T15:50:39.196Z,46.00
2023-05-23T15:53:05.850Z,46.50
2023-05-23T15:55:32.354Z,46.50
2023-05-23T15:57:58.860Z,46.50
2023-05-23T16:00:25.671Z,47.00
2023-05-23T16:02:52.445Z,46.60
2023-05-23T16:05:18.935Z,45.80
2023-05-23T16:07:45.366Z,44.80
2023-05-23T16:10:11.911Z,45.30
2023-05-23T16:12:38.357Z,46.10
2023-05-23T16:15:04.778Z,46.50
2023-05-23T16:17:31.287Z,46.60
2023-05-23T16:19:57.737Z,46.20
2023-05-23T16:22:24.263Z,46.30
2023-05-23T16:24:51.219Z,47.00
2023-05-23T16:27:18.046Z,47.70
2023-05-23T16:29:44.485Z,48.10
2023-05-23T16:32:10.943Z,48.60
2023-05-23T16:34:37.459Z,48.40
2023-05-23T16:37:03.903Z,48.30
2023-05-23T16:39:30.363Z,48.30
2023-05-23T16:41:58.774Z,47.20
2023-05-23T16:44:26.950Z,47.80
2023-05-23T16:46:53.462Z,48.10
2023-05-23T16:49:19.943Z,48.50
2023-05-23T16:51:48.530Z,48.30
2023-05-23T16:54:15.882Z,48.10
2023-05-23T16:56:42.353Z,47.90
2023-05-23T16:59:08.843Z,48.00
2023-05-23T17:01:35.434Z,47.10
2023-05-23T17:04:01.989Z,47.00
2023-05-23T17:06:28.411Z,47.40
2023-05-23T17:08:54.894Z,47.70
2023-05-23T17:11:21.329Z,47.80
2023-05-23T17:13:47.754Z,47.80
2023-05-23T17:16:14.291Z,47.70
2023-05-23T17:18:40.815Z,47.30
2023-05-23T17:21:07.269Z,47.50
2023-05-23T17:23:33.724Z,47.50
2023-05-23T17:26:00.221Z,47.70
2023-05-23T17:28:26.788Z,47.70
2023-05-23T17:30:53.460Z,47.50
2023-05-23T17:33:19.890Z,47.00
2023-05-23T17:35:46.358Z,46.90
2023-05-23T17:38:12.846Z,46.80
2023-05-23T17:40:39.403Z,46.90
2023-05-23T17:43:06.072Z,46.80
2023-05-23T17:45:32.498Z,46.80
2023-05-23T17:47:59.050Z,46.80
2023-05-23T17:50:25.821Z,47.00
2023-05-23T17:52:52.479Z,47.20
2023-05-23T17:55:18.939Z,47.20
2023-05-23T17:57:45.441Z,47.80
2023-05-23T18:00:11.926Z,48.00
2023-05-23T18:02:38.424Z,48.00
2023-05-23T18:05:04.897Z,48.50
2023-05-23T18:07:31.386Z,48.70
2023-05-23T18:09:57.887Z,48.90
2023-05-23T18:12:24.313Z,49.00
2023-05-23T18:14:50.737Z,49.10
2023-05-23T18:17:17.265Z,49.50
2023-05-23T18:19:43.813Z,49.50
2023-05-23T18:22:10.282Z,49.90
2023-05-23T18:24:36.755Z,50.10
2023-05-23T18:27:03.225Z,50.40
2023-05-23T18:29:29.648Z,50.60
2023-05-23T18:31:56.221Z,50.90
2023-05-23T18:34:22.705Z,50.80
2023-05-23T18:36:49.573Z,50.90
2023-05-23T18:39:16.060Z,50.60
2023-05-23T18:41:42.570Z,50.70
2023-05-23T18:44:09.112Z,50.70
2023-05-23T18:46:35.648Z,51.00
2023-05-23T18:49:02.122Z,51.20
2023-05-23T18:51:28.594Z,51.40
2023-05-23T18:53:55.077Z,51.50
2023-05-23T18:56:21.559Z,51.60
2023-05-23T18:58:48.066Z,52.00
2023-05-23T19:01:14.500Z,52.70
2023-05-23T19:03:41.297Z,53.00
2023-05-23T19:06:07.904Z,53.20
2023-05-23T19:08:34.443Z,53.60
2023-05-23T19:11:00.933Z,54.00
2023-05-23T19:13:27.397Z,54.20
2023-05-23T19:15:53.981Z,54.50
2023-05-23T19:18:20.673Z,54.70
2023-05-23T19:20:47.168Z,55.00
2023-05-23T19:23:13.675Z,55.00
2023-05-23T19:25:40.139Z,55.10
2023-05-23T19:28:06.636Z,55.30
2023-05-23T19:30:33.123Z,55.40
2023-05-23T19:32:59.602Z,55.30
2023-05-23T19:35:26.172Z,55.40
2023-05-23T19:37:52.716Z,55.60
2023-05-23T19:40:19.344Z,55.80
2023-05-23T19:42:46.001Z,56.00
2023-05-23T19:45:12.528Z,56.00
2023-05-23T19:47:39.020Z,55.90
2023-05-23T19:50:05.540Z,55.80
2023-05-23T19:52:32.002Z,55.80
2023-05-23T19:54:58.464Z,55.80
2023-05-23T19:57:24.902Z,55.90
2023-05-23T19:59:51.374Z,56.00
2023-05-23T20:02:17.857Z,56.10
2023-05-23T20:04:44.346Z,56.20
2023-05-23T20:07:10.793Z,56.30
2023-05-23T20:09:37.216Z,56.40
2023-05-23T20:12:03.736Z,56.50
2023-05-23T20:14:30.164Z,56.90
2023-05-23T20:16:56.811Z,57.10
2023-05-23T20:19:23.336Z,57.50
2023-05-23T20:21:49.834Z,57.90
2023-05-23T20:24:16.265Z,58.20
2023-05-23T20:26:42.746Z,58.40
2023-05-23T20:29:09.238Z,58.50
2023-05-23T20:31:35.736Z,58.70
2023-05-23T20:34:02.225Z,58.90
2023-05-23T20:36:28.688Z,59.10
2023-05-23T20:38:55.129Z,59.20
2023-05-23T20:41:21.624Z,59.40
2023-05-23T20:43:48.079Z,59.60
2023-05-23T20:46:14.814Z,59.70
2023-05-23T20:48:41.316Z,59.80
2023-05-23T20:51:07.794Z,59.90
2023-05-23T20:53:34.225Z,60.10
2023-05-23T20:56:00.639Z,60.40
2023-05-23T20:58:27.109Z,60.50
2023-05-23T21:00:53.664Z,60.40
2023-05-23T21:03:20.311Z,60.30
2023-05-23T21:05:46.840Z,60.30
2023-05-23T21:08:13.369Z,60.40
2023-05-23T21:10:40.038Z,60.30
2023-05-23T21:13:06.576Z,60.40
2023-05-23T21:15:33.160Z,60.70
2023-05-23T21:17:59.630Z,61.00
2023-05-23T21:20:26.182Z,61.10
2023-05-23T21:22:52.695Z,61.30
2023-05-23T21:25:19.168Z,61.40
2023-05-23T21:27:45.738Z,61.50
2023-05-23T21:30:12.226Z,61.50
2023-05-23T21:32:38.762Z,61.50
2023-05-23T21:35:05.228Z,61.50
2023-05-23T21:37:31.683Z,61.30
2023-05-23T21:39:58.158Z,61.30
2023-05-23T21:42:24.612Z,61.20
2023-05-23T21:44:51.119Z,61.20
2023-05-23T21:47:17.568Z,61.20
2023-05-23T21:49:44.028Z,61.20
2023-05-23T21:52:10.482Z,61.20
2023-05-23T21:54:37.050Z,61.20
2023-05-23T21:57:03.514Z,61.30
2023-05-23T21:59:29.988Z,61.30
2023-05-23T22:01:56.638Z,61.50
2023-05-23T22:04:23.198Z,61.80
2023-05-23T22:06:49.840Z,62.00
2023-05-23T22:09:16.278Z,62.10
2023-05-23T22:11:43.018Z,62.10
2023-05-23T22:14:09.660Z,62.00
2023-05-23T22:16:36.216Z,61.90
2023-05-23T22:19:02.699Z,62.00
2023-05-23T22:21:29.139Z,62.00
2023-05-23T22:23:55.817Z,62.10
2023-05-23T22:26:22.248Z,62.20
2023-05-23T22:28:48.689Z,62.30
2023-05-23T22:31:15.212Z,62.40
2023-05-23T22:33:41.697Z,62.70
2023-05-23T22:36:08.134Z,62.60
2023-05-23T22:38:34.570Z,62.60
2023-05-23T22:41:01.038Z,62.70
2023-05-23T22:43:27.520Z,62.70
2023-05-23T22:45:53.980Z,62.80
2023-05-23T22:48:20.761Z,62.80
2023-05-23T22:50:47.187Z,62.90
2023-05-23T22:53:13.682Z,63.10
2023-05-23T22:55:40.156Z,63.10
2023-05-23T22:58:06.633Z,63.10
2023-05-23T23:00:33.139Z,63.30
2023-05-23T23:02:59.729Z,63.30
2023-05-23T23:05:26.244Z,63.40
2023-05-23T23:07:52.720Z,63.40
2023-05-23T23:10:19.195Z,63.50
2023-05-23T23:12:45.613Z,63.60
2023-05-23T23:15:12.093Z,64.30
2023-05-23T23:17:38.584Z,63.80
2023-05-23T23:20:05.109Z,63.80
2023-05-23T23:22:31.622Z,64.00
2023-05-23T23:24:58.113Z,64.10
2023-05-23T23:27:24.597Z,64.30
2023-05-23T23:29:51.097Z,64.50
2023-05-23T23:32:17.529Z,64.70
2023-05-23T23:34:44.018Z,64.80
2023-05-23T23:37:10.476Z,64.80
2023-05-23T23:39:36.972Z,64.90
2023-05-23T23:42:03.444Z,65.10
2023-05-23T23:44:29.928Z,65.30
2023-05-23T23:46:56.503Z,65.40
2023-05-23T23:49:23.022Z,65.50
2023-05-23T23:51:49.701Z,65.50
2023-05-23T23:54:16.168Z,65.50
2023-05-23T23:56:42.612Z,65.60
2023-05-23T23:59:09.081Z,65.70
